createdAt,value
2019-04-07T00:02:21.387Z,81.17
2019-04-07T00:04:55.764Z,91.10
2019-04-07T00:07:30.259Z,82.80
2019-04-07T00:10:04.585Z,87.53
2019-04-07T00:12:37.683Z,93.40
2019-04-07T00:15:11.313Z,91.07
2019-04-07T00:17:45.466Z,96.40
2019-04-07T00:20:19.822Z,88.90
2019-04-07T00:22:55.114Z,82.90
2019-04-07T00:25:29.964Z,85.03
2019-04-07T00:28:02.582Z,85.83
2019-04-07T00:30:34.991Z,81.30
2019-04-07T00:33:07.512Z,79.67
2019-04-07T00:35:39.747Z,76.03
2019-04-07T00:38:12.738Z,79.50
2019-04-07T00:40:46.846Z,78.17
2019-04-07T00:43:21.105Z,85.23
2019-04-07T00:45:53.901Z,78.00
2019-04-07T00:48:26.628Z,86.20
2019-04-07T00:51:00.531Z,88.47
2019-04-07T00:53:35.319Z,92.20
2019-04-07T00:56:07.480Z,95.63
2019-04-07T00:58:42.227Z,87.27
2019-04-07T01:01:18.800Z,92.73
2019-04-07T01:03:51.373Z,99.37
2019-04-07T01:06:24.110Z,100.20
2019-04-07T01:08:57.835Z,101.90
2019-04-07T01:11:30.895Z,93.23
2019-04-07T01:14:02.828Z,99.77
2019-04-07T01:16:35.268Z,101.23
2019-04-07T01:19:08.752Z,101.03
2019-04-07T01:21:41.370Z,90.77
2019-04-07T01:24:14.492Z,95.23
2019-04-07T01:26:47.139Z,98.73
2019-04-07T01:29:20.988Z,105.67
2019-04-07T01:31:53.689Z,95.00
2019-04-07T01:34:27.268Z,94.97
2019-04-07T01:37:06.440Z,100.37
2019-04-07T01:39:57.199Z,91.40
2019-04-07T01:42:43.485Z,92.20
2019-04-07T01:45:45.822Z,99.83
2019-04-07T01:48:40.191Z,93.00
2019-04-07T01:51:50.440Z,84.10
2019-04-07T01:54:39.523Z,90.50
2019-04-07T01:57:33.870Z,92.60
2019-04-07T02:00:24.973Z,92.77
2019-04-07T02:03:04.950Z,96.70
2019-04-07T02:06:02.033Z,91.07
2019-04-07T02:08:49.064Z,91.63
2019-04-07T02:11:46.272Z,89.27
2019-04-07T02:14:31.239Z,92.80
2019-04-07T02:17:21.941Z,91.77
2019-04-07T02:20:41.244Z,88.03
2019-04-07T02:23:30.576Z,82.33
2019-04-07T02:26:11.627Z,89.43
2019-04-07T02:29:11.693Z,88.63
2019-04-07T02:32:06.085Z,95.10
2019-04-07T02:34:54.860Z,91.47
2019-04-07T02:37:54.724Z,89.33
2019-04-07T02:40:45.935Z,87.97
2019-04-07T02:43:52.998Z,93.47
2019-04-07T02:46:58.861Z,95.77
2019-04-07T02:49:48.653Z,88.67
2019-04-07T02:52:39.304Z,90.73
2019-04-07T02:55:28.104Z,82.37
2019-04-07T02:58:15.757Z,89.77
2019-04-07T03:01:06.875Z,93.87
2019-04-07T03:03:55.767Z,96.00
2019-04-07T03:06:49.993Z,92.83
2019-04-07T03:09:36.569Z,92.27
2019-04-07T03:12:31.663Z,94.90
2019-04-07T03:15:25.178Z,92.43
2019-04-07T03:18:16.283Z,93.10
2019-04-07T03:21:29.671Z,94.43
2019-04-07T03:24:21.022Z,84.87
2019-04-07T03:27:10.189Z,88.10
2019-04-07T03:30:00.716Z,89.53
2019-04-07T03:33:12.620Z,90.77
2019-04-07T03:36:04.050Z,103.83
2019-04-07T03:39:00.846Z,99.30
2019-04-07T03:41:53.676Z,89.03
2019-04-07T03:44:51.207Z,94.97
2019-04-07T03:47:42.413Z,92.37
2019-04-07T03:50:29.578Z,95.40
2019-04-07T03:53:20.134Z,94.17
2019-04-07T03:56:11.044Z,95.67
2019-04-07T03:59:07.626Z,98.50
2019-04-07T04:02:01.710Z,101.57
2019-04-07T04:04:58.141Z,95.23
2019-04-07T04:07:47.370Z,99.50
2019-04-07T04:10:42.661Z,100.80
2019-04-07T04:13:38.328Z,100.40
2019-04-07T04:16:17.891Z,102.93
2019-04-07T04:19:00.789Z,118.63
2019-04-07T04:21:33.180Z,108.77
2019-04-07T04:24:08.242Z,103.77
2019-04-07T04:26:40.905Z,98.50
2019-04-07T04:29:13.357Z,103.67
2019-04-07T04:31:45.925Z,101.43
2019-04-07T04:34:18.003Z,104.37
2019-04-07T04:36:51.914Z,98.77
2019-04-07T04:39:25.434Z,104.80
2019-04-07T04:41:59.843Z,102.10
2019-04-07T04:44:32.051Z,102.87
2019-04-07T04:47:04.899Z,100.23
2019-04-07T04:49:38.330Z,99.17
2019-04-07T04:52:11.414Z,110.60
2019-04-07T04:54:43.787Z,100.43
2019-04-07T04:57:15.699Z,108.00
2019-04-07T04:59:48.532Z,111.40
2019-04-07T05:02:20.201Z,109.20
2019-04-07T05:04:52.779Z,104.17
2019-04-07T05:07:26.575Z,103.23
2019-04-07T05:09:58.945Z,103.57
2019-04-07T05:12:32.315Z,100.23
2019-04-07T05:15:05.112Z,105.87
2019-04-07T05:17:38.150Z,108.00
2019-04-07T05:20:10.951Z,106.57
2019-04-07T05:22:43.295Z,105.53
2019-04-07T05:25:16.211Z,97.77
2019-04-07T05:27:49.247Z,131.03
2019-04-07T05:30:23.466Z,136.23
2019-04-07T05:32:55.656Z,103.10
2019-04-07T05:35:28.603Z,95.10
2019-04-07T05:38:04.550Z,106.53
2019-04-07T05:40:35.634Z,107.03
2019-04-07T05:43:08.449Z,104.50
2019-04-07T05:45:41.232Z,91.23
2019-04-07T05:48:17.318Z,92.17
2019-04-07T05:50:48.853Z,90.40
2019-04-07T05:53:21.936Z,91.77
2019-04-07T05:55:56.198Z,86.50
2019-04-07T05:58:29.468Z,90.17
2019-04-07T06:01:02.813Z,93.53
2019-04-07T06:03:38.617Z,86.10
2019-04-07T06:06:10.499Z,96.73
2019-04-07T06:08:46.970Z,90.73
2019-04-07T06:11:19.482Z,92.70
2019-04-07T06:13:53.661Z,85.33
2019-04-07T06:16:26.742Z,86.03
2019-04-07T06:19:01.782Z,87.93
2019-04-07T06:21:34.112Z,104.77
2019-04-07T06:24:08.164Z,103.50
2019-04-07T06:26:43.578Z,119.00
2019-04-07T06:29:16.059Z,109.93
2019-04-07T06:31:49.540Z,128.97
2019-04-07T06:34:22.586Z,101.33
2019-04-07T06:36:57.017Z,104.30
2019-04-07T06:39:31.850Z,102.23
2019-04-07T06:42:05.822Z,103.20
2019-04-07T06:44:38.522Z,106.93
2019-04-07T06:47:18.992Z,110.93
2019-04-07T06:50:15.455Z,108.73
2019-04-07T06:53:04.439Z,102.17
2019-04-07T06:56:00.041Z,104.93
2019-04-07T06:58:51.485Z,95.73
2019-04-07T07:01:49.320Z,99.10
2019-04-07T07:04:57.220Z,94.80
2019-04-07T07:07:41.618Z,100.37
2019-04-07T07:10:42.948Z,103.67
2019-04-07T07:13:52.079Z,103.07
2019-04-07T07:16:56.483Z,95.30
2019-04-07T07:20:05.319Z,98.23
2019-04-07T07:22:50.784Z,98.30
2019-04-07T07:25:22.992Z,91.77
2019-04-07T07:27:56.837Z,88.23
2019-04-07T07:30:31.490Z,91.47
2019-04-07T07:33:07.314Z,93.10
2019-04-07T07:35:40.943Z,98.33
2019-04-07T07:38:15.627Z,83.00
2019-04-07T07:40:50.133Z,93.13
2019-04-07T07:43:27.972Z,101.10
2019-04-07T07:46:03.990Z,92.57
2019-04-07T07:48:38.928Z,89.20
2019-04-07T07:51:13.085Z,90.23
2019-04-07T07:53:47.440Z,91.10
2019-04-07T07:56:21.404Z,85.33
2019-04-07T07:58:55.103Z,91.20
2019-04-07T08:01:30.135Z,96.20
2019-04-07T08:04:05.252Z,80.00
2019-04-07T08:06:41.136Z,92.90
2019-04-07T08:09:16.425Z,99.13
2019-04-07T08:11:50.077Z,98.13
2019-04-07T08:14:26.016Z,108.60
2019-04-07T08:17:02.263Z,95.60
2019-04-07T08:19:33.275Z,97.20
2019-04-07T08:22:07.689Z,93.43
2019-04-07T08:24:41.593Z,101.90
2019-04-07T08:27:16.273Z,93.57
2019-04-07T08:29:49.350Z,98.50
2019-04-07T08:32:46.538Z,89.77
2019-04-07T08:35:24.410Z,87.20
2019-04-07T08:37:57.621Z,82.00
2019-04-07T08:40:31.094Z,78.87
2019-04-07T08:43:14.867Z,88.83
2019-04-07T08:45:48.682Z,90.50
2019-04-07T08:48:22.088Z,86.53
2019-04-07T08:50:58.718Z,87.70
2019-04-07T08:53:31.731Z,79.23
2019-04-07T08:56:09.899Z,83.70
2019-04-07T08:58:44.196Z,78.47
2019-04-07T09:01:20.293Z,72.87
2019-04-07T09:03:56.056Z,72.97
2019-04-07T09:06:30.354Z,82.67
2019-04-07T09:09:05.900Z,85.37
2019-04-07T09:11:40.349Z,71.90
2019-04-07T09:14:15.978Z,73.10
2019-04-07T09:17:07.269Z,68.97
2019-04-07T09:19:59.761Z,77.93
2019-04-07T09:22:58.004Z,73.30
2019-04-07T09:25:52.707Z,68.30
2019-04-07T09:28:57.575Z,53.33
2019-04-07T09:31:54.340Z,66.40
2019-04-07T09:34:45.172Z,65.50
2019-04-07T09:37:34.235Z,64.50
2019-04-07T09:40:27.951Z,58.03
2019-04-07T09:43:10.112Z,61.37
2019-04-07T09:46:11.913Z,62.67
2019-04-07T09:49:03.344Z,65.30
2019-04-07T09:51:53.883Z,57.53
2019-04-07T09:54:51.812Z,54.63
2019-04-07T09:57:36.068Z,54.83
2019-04-07T10:00:26.552Z,53.33
2019-04-07T10:03:16.352Z,55.83
2019-04-07T10:06:20.452Z,49.80
2019-04-07T10:09:11.721Z,52.37
2019-04-07T10:12:10.124Z,47.97
2019-04-07T10:14:59.797Z,48.83
2019-04-07T10:17:47.724Z,47.23
2019-04-07T10:20:45.508Z,44.77
2019-04-07T10:23:45.867Z,40.97
2019-04-07T10:26:50.621Z,40.13
2019-04-07T10:29:31.931Z,36.80
2019-04-07T10:32:20.045Z,34.93
2019-04-07T10:35:17.888Z,31.03
2019-04-07T10:37:59.471Z,29.43
2019-04-07T10:40:42.048Z,27.20
2019-04-07T10:43:25.053Z,26.60
2019-04-07T10:46:15.594Z,40.13
2019-04-07T10:49:10.363Z,42.03
2019-04-07T10:51:51.212Z,42.20
2019-04-07T10:54:40.534Z,48.43
2019-04-07T10:57:38.937Z,66.03
2019-04-07T11:00:40.014Z,66.33
2019-04-07T11:03:27.334Z,67.33
2019-04-07T11:06:21.616Z,70.33
2019-04-07T11:09:22.343Z,69.07
2019-04-07T11:12:04.572Z,65.77
2019-04-07T11:15:00.085Z,69.07
2019-04-07T11:17:43.591Z,70.13
2019-04-07T11:20:41.160Z,63.10
2019-04-07T11:23:25.236Z,66.30
2019-04-07T11:26:25.270Z,72.83
2019-04-07T11:29:06.412Z,65.43
2019-04-07T11:31:48.387Z,65.37
2019-04-07T11:34:39.120Z,67.80
2019-04-07T11:37:40.807Z,62.13
2019-04-07T11:40:41.946Z,71.77
2019-04-07T11:43:22.767Z,67.30
2019-04-07T11:46:26.285Z,62.80
2019-04-07T11:49:10.427Z,53.80
2019-04-07T11:51:45.460Z,73.80
2019-04-07T11:54:24.032Z,53.90
2019-04-07T11:57:25.819Z,44.57
2019-04-07T12:00:17.376Z,46.03
2019-04-07T12:03:14.966Z,49.07
2019-04-07T12:06:04.653Z,87.77
2019-04-07T12:08:57.137Z,41.43
2019-04-07T12:11:54.810Z,38.50
2019-04-07T12:14:54.669Z,46.93
2019-04-07T12:17:54.592Z,69.77
2019-04-07T12:20:52.917Z,50.40
2019-04-07T12:23:43.319Z,34.50
2019-04-07T12:26:42.490Z,51.60
2019-04-07T12:29:35.313Z,39.63
2019-04-07T12:32:34.332Z,43.07
2019-04-07T12:35:23.563Z,50.93
2019-04-07T12:38:19.403Z,51.80
2019-04-07T12:41:17.132Z,44.27
2019-04-07T12:44:17.094Z,44.87
2019-04-07T12:47:28.399Z,42.40
2019-04-07T12:50:19.764Z,46.77
2019-04-07T12:53:21.914Z,31.53
2019-04-07T12:56:31.227Z,42.73
2019-04-07T12:59:14.263Z,30.67
2019-04-07T13:02:05.558Z,30.93
2019-04-07T13:05:00.546Z,26.73
2019-04-07T13:08:03.018Z,19.37
2019-04-07T13:11:04.726Z,19.50
2019-04-07T13:13:53.444Z,22.90
2019-04-07T13:16:59.865Z,23.27
2019-04-07T13:19:53.426Z,27.47
2019-04-07T13:22:42.227Z,26.87
2019-04-07T13:25:34.154Z,27.80
2019-04-07T13:28:28.672Z,27.63
2019-04-07T13:31:19.882Z,25.07
2019-04-07T13:34:11.406Z,24.57
2019-04-07T13:37:17.295Z,27.83
2019-04-07T13:40:12.971Z,40.13
2019-04-07T13:43:03.310Z,26.73
2019-04-07T13:49:27.271Z,26.80
2019-04-07T13:52:17.877Z,43.10
2019-04-07T13:55:04.463Z,37.37
2019-04-07T13:57:46.102Z,26.23
2019-04-07T14:00:37.013Z,28.00
2019-04-07T14:03:47.064Z,37.40
2019-04-07T14:06:43.625Z,33.53
2019-04-07T14:09:39.164Z,27.87
2019-04-07T14:12:33.400Z,32.40
2019-04-07T14:15:14.314Z,38.67
2019-04-07T14:17:58.743Z,46.07
2019-04-07T14:20:44.105Z,29.87
2019-04-07T14:23:55.509Z,31.67
2019-04-07T14:26:41.310Z,34.17
2019-04-07T14:29:33.885Z,31.83
2019-04-07T14:32:21.934Z,48.67
2019-04-07T14:35:15.545Z,52.13
2019-04-07T14:38:09.958Z,47.07
2019-04-07T14:41:09.662Z,34.13
2019-04-07T14:44:08.445Z,37.63
2019-04-07T14:46:54.127Z,40.20
2019-04-07T14:49:37.919Z,49.87
2019-04-07T14:52:29.645Z,48.03
2019-04-07T14:55:20.890Z,55.73
2019-04-07T14:58:21.951Z,82.53
2019-04-07T15:01:14.387Z,59.70
2019-04-07T15:03:46.818Z,78.97
2019-04-07T15:06:20.736Z,59.97
2019-04-07T15:09:05.187Z,47.30
2019-04-07T15:12:14.614Z,43.07
2019-04-07T15:14:38.453Z,34.90
2019-04-07T15:17:12.712Z,36.87
2019-04-07T15:19:46.234Z,49.27
2019-04-07T15:22:30.863Z,63.27
2019-04-07T15:25:07.183Z,60.60
2019-04-07T15:27:38.447Z,59.10
2019-04-07T15:30:16.542Z,55.63
2019-04-07T15:32:50.449Z,59.27
2019-04-07T15:35:23.318Z,59.20
2019-04-07T15:37:57.096Z,53.60
2019-04-07T15:40:34.096Z,58.23
2019-04-07T15:43:08.659Z,56.50
2019-04-07T15:45:42.645Z,69.57
2019-04-07T15:48:17.067Z,59.43
2019-04-07T15:50:51.871Z,57.80
2019-04-07T15:53:25.634Z,54.53
2019-04-07T15:56:05.737Z,63.40
2019-04-07T15:58:35.226Z,73.17
2019-04-07T16:01:09.417Z,82.30
2019-04-07T16:03:47.638Z,84.63
2019-04-07T16:06:17.896Z,85.03
2019-04-07T16:08:51.950Z,103.07
2019-04-07T16:11:29.066Z,103.20
2019-04-07T16:14:01.623Z,167.53
2019-04-07T16:16:37.222Z,179.70
2019-04-07T16:19:17.631Z,172.50
2019-04-07T16:21:48.288Z,165.57
2019-04-07T16:24:22.752Z,123.43
2019-04-07T16:30:23.276Z,80.40
2019-04-07T16:33:01.837Z,68.53
2019-04-07T16:35:35.042Z,61.87
2019-04-07T16:38:11.592Z,69.43
2019-04-07T16:40:47.940Z,72.67
2019-04-07T16:43:24.166Z,63.17
2019-04-07T16:45:59.605Z,57.03
2019-04-07T16:48:36.022Z,61.00
2019-04-07T16:52:01.253Z,60.73
2019-04-07T16:54:36.170Z,58.03
2019-04-07T16:57:11.784Z,53.73
2019-04-07T16:59:50.398Z,66.13
2019-04-07T17:02:25.190Z,118.00
2019-04-07T17:05:01.621Z,96.27
2019-04-07T17:07:38.213Z,134.90
2019-04-07T17:10:11.935Z,152.53
2019-04-07T17:12:46.424Z,93.87
2019-04-07T17:15:19.601Z,80.50
2019-04-07T17:17:54.599Z,125.77
2019-04-07T17:20:28.455Z,76.83
2019-04-07T17:23:02.189Z,56.57
2019-04-07T17:25:36.428Z,61.93
2019-04-07T17:28:13.609Z,96.47
2019-04-07T17:30:44.496Z,62.53
2019-04-07T17:33:20.387Z,62.13
2019-04-07T17:35:54.105Z,64.90
2019-04-07T17:38:34.007Z,60.77
2019-04-07T17:41:09.208Z,59.77
2019-04-07T17:43:59.273Z,58.10
2019-04-07T17:46:53.309Z,56.60
2019-04-07T17:49:48.887Z,59.83
2019-04-07T17:52:48.520Z,62.30
2019-04-07T17:55:37.860Z,67.47
2019-04-07T17:58:29.857Z,65.77
2019-04-07T18:01:25.086Z,72.57
2019-04-07T18:04:29.060Z,62.23
2019-04-07T18:07:23.347Z,63.50
2019-04-07T18:10:28.500Z,57.07
2019-04-07T18:13:23.416Z,55.10
2019-04-07T18:16:07.244Z,51.50
2019-04-07T18:18:59.433Z,53.83
2019-04-07T18:21:52.458Z,57.97
2019-04-07T18:24:43.391Z,50.00
2019-04-07T18:27:45.030Z,50.63
2019-04-07T18:30:35.641Z,49.17
2019-04-07T18:33:38.181Z,46.60
2019-04-07T18:36:34.731Z,45.67
2019-04-07T18:39:27.556Z,47.03
2019-04-07T18:42:19.679Z,45.07
2019-04-07T18:45:05.249Z,61.03
2019-04-07T18:48:02.278Z,50.40
2019-04-07T18:51:10.648Z,50.73
2019-04-07T18:54:09.528Z,53.57
2019-04-07T18:57:09.831Z,57.40
2019-04-07T19:00:10.533Z,55.37
2019-04-07T19:02:50.446Z,49.30
2019-04-07T19:05:40.659Z,52.83
2019-04-07T19:08:31.676Z,45.87
2019-04-07T19:11:17.216Z,50.67
2019-04-07T19:14:30.569Z,49.67
2019-04-07T19:16:54.587Z,53.63
2019-04-07T19:19:50.613Z,51.13
2019-04-07T19:22:40.457Z,51.40
2019-04-07T19:25:33.975Z,54.17
2019-04-07T19:28:25.176Z,57.23
2019-04-07T19:31:16.867Z,50.40
2019-04-07T19:34:11.842Z,52.30
2019-04-07T19:37:03.890Z,52.50
2019-04-07T19:39:57.409Z,56.57
2019-04-07T19:42:52.130Z,55.30
2019-04-07T19:45:57.096Z,52.53
2019-04-07T19:48:55.555Z,56.77
2019-04-07T19:51:50.842Z,56.87
2019-04-07T19:54:49.460Z,56.57
2019-04-07T19:57:42.767Z,54.70
2019-04-07T20:00:33.225Z,55.90
2019-04-07T20:03:28.430Z,57.57
2019-04-07T20:06:24.785Z,58.07
2019-04-07T20:09:21.630Z,59.10
2019-04-07T20:12:20.634Z,55.53
2019-04-07T20:15:13.942Z,55.37
2019-04-07T20:18:10.339Z,44.87
2019-04-07T20:21:08.283Z,46.77
2019-04-07T20:24:03.661Z,42.40
2019-04-07T20:26:55.570Z,48.40
2019-04-07T20:29:47.788Z,41.10
2019-04-07T20:32:35.249Z,44.37
2019-04-07T20:35:29.723Z,43.73
2019-04-07T20:38:20.199Z,46.93
2019-04-07T20:41:13.604Z,44.43
2019-04-07T20:44:13.200Z,48.07
2019-04-07T20:47:23.648Z,52.33
2019-04-07T20:50:29.540Z,50.03
2019-04-07T20:53:30.898Z,54.97
2019-04-07T20:56:20.770Z,55.90
2019-04-07T20:59:08.405Z,56.07
2019-04-07T21:02:14.373Z,53.50
2019-04-07T21:05:08.150Z,55.80
2019-04-07T21:08:12.534Z,59.67
2019-04-07T21:10:58.074Z,64.43
2019-04-07T21:14:04.159Z,65.40
2019-04-07T21:16:57.859Z,61.37
2019-04-07T21:19:57.554Z,60.27
2019-04-07T21:22:54.863Z,58.83
2019-04-07T21:25:56.847Z,57.30
2019-04-07T21:28:41.705Z,55.93
2019-04-07T21:31:21.463Z,56.80
2019-04-07T21:34:09.652Z,54.87
2019-04-07T21:37:00.469Z,57.07
2019-04-07T21:39:43.786Z,62.00
2019-04-07T21:42:32.668Z,53.33
2019-04-07T21:45:38.998Z,54.83
2019-04-07T21:48:17.887Z,56.47
2019-04-07T21:51:13.454Z,56.47
2019-04-07T21:54:02.502Z,55.17
2019-04-07T21:56:53.979Z,53.03
2019-04-07T22:00:01.621Z,57.57
2019-04-07T22:02:46.845Z,54.37
2019-04-07T22:05:58.152Z,60.53
2019-04-07T22:08:36.920Z,93.93
2019-04-07T22:11:22.689Z,112.63
2019-04-07T22:13:53.684Z,72.77
2019-04-07T22:16:30.610Z,82.27
2019-04-07T22:19:01.843Z,85.50
2019-04-07T22:21:36.210Z,79.30
2019-04-07T22:24:09.002Z,75.40
2019-04-07T22:26:49.184Z,70.70
2019-04-07T22:29:18.515Z,78.23
2019-04-07T22:31:53.446Z,80.00
2019-04-07T22:34:29.846Z,96.90
2019-04-07T22:37:01.476Z,102.43
2019-04-07T22:39:33.568Z,100.60
2019-04-07T22:42:06.182Z,87.00
2019-04-07T22:47:16.739Z,79.83
2019-04-07T22:49:50.652Z,98.83
2019-04-07T22:52:22.874Z,72.27
2019-04-07T22:54:54.989Z,71.33
2019-04-07T22:57:29.169Z,72.40
2019-04-07T23:00:02.390Z,76.90
2019-04-07T23:02:36.394Z,76.90
2019-04-07T23:05:09.576Z,89.80
2019-04-07T23:07:43.816Z,90.43
2019-04-07T23:10:16.216Z,77.20
2019-04-07T23:12:48.727Z,75.47
2019-04-07T23:15:22.810Z,79.43
2019-04-07T23:17:56.155Z,72.30
2019-04-07T23:20:29.147Z,78.20
2019-04-07T23:23:02.710Z,77.67
2019-04-07T23:25:36.434Z,64.23
2019-04-07T23:28:12.036Z,64.80
2019-04-07T23:30:45.117Z,62.50
2019-04-07T23:33:18.190Z,54.40
2019-04-07T23:35:50.617Z,65.23
2019-04-07T23:38:22.650Z,62.80
2019-04-07T23:40:55.613Z,77.67
2019-04-07T23:43:29.149Z,85.50
2019-04-07T23:46:02.271Z,66.87
2019-04-07T23:48:34.877Z,78.63
2019-04-07T23:51:08.574Z,67.20
2019-04-07T23:54:09.026Z,71.33
2019-04-07T23:56:43.494Z,88.03
2019-04-07T23:59:16.915Z,86.10
